Time;durP1;ratioP1;P1;durP2;ratioP2;P2;SDS_P1;SDS_P2;PMS_P1;PMS_P2;Temp;Humidity;BMP_temperature;BMP_pressure;BME280_temperature;BME280_humidity;BME280_pressure;Samples;Min_cycle;Max_cycle;Signal;HPM_P1;HPM_P2
2021/09/25 00:01:20;;;;;;;8.30;6.80;;;14.60;99.90;;;;;;5019859;28;20472;-80
2021/09/25 00:03:46;;;;;;;8.07;5.90;;;14.70;99.90;;;;;;5024778;28;20173;-80
2021/09/25 00:06:12;;;;;;;7.53;6.83;;;14.70;99.90;;;;;;5024488;28;20518;-80
2021/09/25 00:08:38;;;;;;;5.90;5.30;;;14.80;99.90;;;;;;5027160;28;20424;-80
2021/09/25 00:11:05;;;;;;;6.50;5.90;;;14.80;99.90;;;;;;5026543;28;20228;-80
2021/09/25 00:13:31;;;;;;;8.07;4.97;;;14.60;99.90;;;;;;5022934;28;20396;-81
2021/09/25 00:15:57;;;;;;;12.13;5.70;;;14.70;99.90;;;;;;5022724;28;20450;-80
2021/09/25 00:18:23;;;;;;;11.13;6.10;;;14.70;99.90;;;;;;5022373;28;20725;-80
2021/09/25 00:20:49;;;;;;;8.83;6.70;;;14.80;99.90;;;;;;5021960;28;20157;-80
2021/09/25 00:23:15;;;;;;;6.13;5.63;;;14.80;99.90;;;;;;5021732;28;20162;-80
2021/09/25 00:25:42;;;;;;;8.80;5.77;;;14.90;99.90;;;;;;5022251;28;20407;-81
2021/09/25 00:28:08;;;;;;;6.10;5.60;;;14.70;99.90;;;;;;5021682;28;20161;-80
2021/09/25 00:30:34;;;;;;;9.53;6.17;;;14.70;99.90;;;;;;5021487;28;20392;-80
2021/09/25 00:32:59;;;;;;;7.07;6.03;;;14.60;99.90;;;;;;5020267;28;20219;-80
2021/09/25 00:35:25;;;;;;;6.57;5.97;;;14.60;99.90;;;;;;5021313;28;20208;-80
2021/09/25 00:37:51;;;;;;;7.30;5.70;;;14.60;99.90;;;;;;5020228;28;20264;-80
2021/09/25 00:40:17;;;;;;;9.13;6.17;;;14.50;99.90;;;;;;5020026;28;20397;-80
2021/09/25 00:42:44;;;;;;;6.33;5.73;;;14.60;99.90;;;;;;5021420;28;20166;-81
2021/09/25 00:45:11;;;;;;;6.73;6.00;;;14.60;99.90;;;;;;5021296;28;20719;-81
2021/09/25 00:47:38;;;;;;;7.40;5.83;;;14.50;99.90;;;;;;4987737;28;20403;-80
2021/09/25 00:50:06;;;;;;;7.47;6.17;;;14.50;99.90;;;;;;5019836;28;20432;-81
2021/09/25 00:52:32;;;;;;;7.47;6.63;;;14.50;99.90;;;;;;5019409;28;20447;-80
2021/09/25 00:54:58;;;;;;;8.40;6.10;;;14.30;99.90;;;;;;5021745;28;20937;-81
2021/09/25 00:57:25;;;;;;;7.43;5.33;;;14.40;99.90;;;;;;5021348;28;20458;-80
2021/09/25 00:59:51;;;;;;;7.80;6.47;;;14.40;99.90;;;;;;5021552;28;20406;-81
2021/09/25 01:02:17;;;;;;;7.40;6.80;;;14.50;99.90;;;;;;5019593;28;20392;-81
2021/09/25 01:04:46;;;;;;;7.60;6.70;;;14.30;99.90;;;;;;5021465;28;20392;-81
2021/09/25 01:07:13;;;;;;;9.33;6.57;;;14.40;99.90;;;;;;5021289;28;20396;-80
2021/09/25 01:09:39;;;;;;;7.50;6.70;;;14.40;99.90;;;;;;5019947;28;20433;-80
2021/09/25 01:12:06;;;;;;;8.03;6.40;;;14.40;99.90;;;;;;5021719;28;20440;-81
2021/09/25 01:14:32;;;;;;;10.63;6.30;;;14.40;99.90;;;;;;5018134;28;20442;-81
2021/09/25 01:17:05;;;;;;;13.00;6.03;;;14.30;99.90;;;;;;5003343;28;20476;-81
2021/09/25 01:19:31;;;;;;;8.00;6.17;;;14.30;99.90;;;;;;5019542;28;20185;-81
2021/09/25 01:21:57;;;;;;;7.07;6.37;;;14.20;99.90;;;;;;5003937;28;20397;-78
2021/09/25 01:24:22;;;;;;;5.20;4.73;;;14.20;99.90;;;;;;5028734;28;20212;-77
2021/09/25 01:26:48;;;;;;;9.07;6.87;;;14.30;99.90;;;;;;5013947;28;20189;-77
2021/09/25 01:29:14;;;;;;;11.70;7.67;;;14.30;99.90;;;;;;4998084;28;20208;-77
2021/09/25 01:31:40;;;;;;;9.40;6.40;;;14.40;99.90;;;;;;4998446;28;20244;-78
2021/09/25 01:34:06;;;;;;;5.93;5.43;;;14.30;99.90;;;;;;5004104;28;20265;-79
2021/09/25 01:36:32;;;;;;;9.20;6.80;;;14.10;99.90;;;;;;5018708;28;20253;-80
2021/09/25 01:38:57;;;;;;;10.10;5.80;;;14.00;99.90;;;;;;5018677;28;20266;-80
2021/09/25 01:41:23;;;;;;;7.77;6.97;;;14.00;99.90;;;;;;5018828;28;20432;-80
2021/09/25 01:43:49;;;;;;;10.67;6.10;;;13.90;99.90;;;;;;5002456;28;20625;-81
2021/09/25 01:46:18;;;;;;;8.10;7.23;;;13.90;99.90;;;;;;5020581;28;20243;-80
2021/09/25 01:48:44;;;;;;;9.67;7.37;;;14.10;99.90;;;;;;5020676;28;20172;-80
2021/09/25 01:51:12;;;;;;;6.23;5.63;;;14.00;99.90;;;;;;5002560;28;20514;-81
2021/09/25 01:53:39;;;;;;;7.47;6.73;;;13.90;99.90;;;;;;5018830;28;20405;-80
2021/09/25 01:56:11;;;;;;;7.93;6.13;;;14.00;99.90;;;;;;5020149;28;20393;-80
2021/09/25 01:58:39;;;;;;;6.47;5.90;;;14.00;99.90;;;;;;5018609;28;20456;-80
2021/09/25 02:01:07;;;;;;;6.87;6.17;;;14.00;99.90;;;;;;5018907;28;20432;-81
2021/09/25 02:03:35;;;;;;;7.67;6.97;;;14.00;99.90;;;;;;5020056;28;20439;-80
2021/09/25 02:06:03;;;;;;;7.80;6.33;;;13.90;99.90;;;;;;5020982;28;20407;-80
2021/09/25 02:08:29;;;;;;;7.90;7.10;;;13.90;99.90;;;;;;5019764;28;20432;-80
2021/09/25 02:10:55;;;;;;;8.33;7.37;;;13.80;99.90;;;;;;5019508;28;20458;-80
2021/09/25 02:13:21;;;;;;;7.77;7.03;;;13.90;99.90;;;;;;5019864;28;20889;-80
2021/09/25 02:15:47;;;;;;;8.10;6.27;;;13.90;99.90;;;;;;5019764;28;20168;-80
2021/09/25 02:18:14;;;;;;;8.70;6.70;;;13.90;99.90;;;;;;5002082;28;20166;-81
2021/09/25 02:20:39;;;;;;;10.43;7.93;;;13.80;99.90;;;;;;5019006;28;20168;-81
2021/09/25 02:23:05;;;;;;;7.30;6.67;;;13.60;99.90;;;;;;5020296;28;20404;-80
2021/09/25 02:25:31;;;;;;;7.40;6.70;;;13.50;99.90;;;;;;5019616;28;20169;-80
2021/09/25 02:27:57;;;;;;;7.70;7.10;;;13.50;99.90;;;;;;5019881;28;20769;-81
2021/09/25 02:30:23;;;;;;;10.97;7.10;;;13.40;99.90;;;;;;5021020;28;20454;-81
2021/09/25 02:32:49;;;;;;;9.03;8.27;;;13.40;99.90;;;;;;5020853;28;20189;-81
2021/09/25 02:35:17;;;;;;;8.20;7.13;;;13.60;99.90;;;;;;5018439;28;20158;-81
2021/09/25 02:37:43;;;;;;;10.20;9.20;;;13.40;99.90;;;;;;5019584;28;20398;-81
2021/09/25 02:40:10;;;;;;;9.60;7.97;;;13.40;99.90;;;;;;5019097;28;20689;-80
2021/09/25 02:42:37;;;;;;;7.53;6.83;;;13.40;99.90;;;;;;5018965;28;20393;-82
2021/09/25 02:45:04;;;;;;;7.97;7.27;;;13.30;99.90;;;;;;5018806;28;20428;-81
2021/09/25 02:47:29;;;;;;;8.63;7.77;;;13.30;99.90;;;;;;5019141;28;20795;-81
2021/09/25 02:49:55;;;;;;;8.70;7.80;;;13.30;99.90;;;;;;5018483;28;20404;-82
2021/09/25 02:52:21;;;;;;;17.53;9.13;;;13.30;99.90;;;;;;5019373;28;20189;-81
2021/09/25 02:54:47;;;;;;;6.97;6.27;;;13.40;99.90;;;;;;5019710;28;20161;-81
2021/09/25 02:57:13;;;;;;;8.60;7.70;;;13.40;99.90;;;;;;5019285;28;20244;-80
2021/09/25 02:59:38;;;;;;;11.17;7.10;;;13.20;99.90;;;;;;5019194;28;20153;-81
2021/09/25 03:02:04;;;;;;;9.73;8.30;;;13.20;99.90;;;;;;5019354;28;20168;-80
2021/09/25 03:04:30;;;;;;;9.33;6.80;;;13.40;99.90;;;;;;5019452;28;20161;-81
2021/09/25 03:06:56;;;;;;;10.20;8.17;;;13.50;99.90;;;;;;5019316;28;20245;-81
2021/09/25 03:09:22;;;;;;;8.13;7.07;;;13.20;99.90;;;;;;5019664;28;20665;-81
2021/09/25 03:11:49;;;;;;;13.17;9.57;;;13.20;99.90;;;;;;5019376;28;20463;-81
2021/09/25 03:14:15;;;;;;;9.93;7.50;;;13.10;99.90;;;;;;5019580;28;20913;-81
2021/09/25 03:16:41;;;;;;;8.67;7.73;;;13.10;99.90;;;;;;5019455;28;20571;-81
2021/09/25 03:19:07;;;;;;;7.70;6.97;;;13.20;99.90;;;;;;5019187;28;20877;-81
2021/09/25 03:21:33;;;;;;;10.27;7.60;;;13.30;99.90;;;;;;5001947;28;20404;-80
2021/09/25 03:23:59;;;;;;;10.87;8.27;;;13.20;99.90;;;;;;5019488;28;20167;-81
2021/09/25 03:26:24;;;;;;;14.87;7.70;;;13.20;99.90;;;;;;5019937;28;20157;-81
2021/09/25 03:28:50;;;;;;;10.00;8.13;;;13.10;99.90;;;;;;5019528;28;20165;-81
2021/09/25 03:31:16;;;;;;;8.30;7.30;;;12.90;99.90;;;;;;5021036;28;20275;-81
2021/09/25 03:33:42;;;;;;;11.87;8.70;;;12.90;99.90;;;;;;5022916;28;20182;-80
2021/09/25 03:36:08;;;;;;;12.83;7.90;;;12.80;99.90;;;;;;5019903;28;20388;-81
2021/09/25 03:38:34;;;;;;;8.17;7.47;;;13.00;99.90;;;;;;5026239;28;20181;-79
2021/09/25 03:41:00;;;;;;;8.37;7.57;;;13.20;99.90;;;;;;5034136;28;20404;-79
2021/09/25 03:43:26;;;;;;;10.70;7.70;;;13.30;99.90;;;;;;5027925;28;20173;-80
2021/09/25 03:45:53;;;;;;;12.10;9.27;;;13.10;99.90;;;;;;5023026;28;20725;-81
2021/09/25 03:48:18;;;;;;;9.07;8.17;;;13.00;99.90;;;;;;5005646;28;20428;-80
2021/09/25 03:50:44;;;;;;;7.83;7.17;;;13.10;99.90;;;;;;5022936;28;20888;-81
2021/09/25 03:53:11;;;;;;;8.50;7.00;;;12.80;99.90;;;;;;5022633;28;20199;-80
2021/09/25 03:55:36;;;;;;;12.10;7.23;;;12.70;99.90;;;;;;5022187;28;20384;-81
2021/09/25 03:58:02;;;;;;;8.50;7.37;;;12.60;99.90;;;;;;5020620;28;20450;-80
2021/09/25 04:00:29;;;;;;;9.03;8.20;;;12.50;99.90;;;;;;5022499;28;20176;-81
2021/09/25 04:02:55;;;;;;;11.53;8.10;;;12.30;99.90;;;;;;5022747;28;20877;-79
2021/09/25 04:05:21;;;;;;;9.07;8.03;;;12.30;99.90;;;;;;5022351;28;20396;-81
2021/09/25 04:07:48;;;;;;;8.77;7.87;;;12.20;99.90;;;;;;5022354;28;20403;-81
2021/09/25 04:10:15;;;;;;;8.63;7.83;;;12.20;99.90;;;;;;5022453;28;20401;-81
2021/09/25 04:12:42;;;;;;;10.83;9.60;;;12.20;99.90;;;;;;5022409;28;20439;-81
2021/09/25 04:15:10;;;;;;;9.27;8.47;;;12.30;99.90;;;;;;5022535;28;20431;-81
2021/09/25 04:17:36;;;;;;;11.40;7.77;;;12.40;99.90;;;;;;5022114;28;20496;-81
2021/09/25 04:20:04;;;;;;;10.13;7.93;;;12.40;99.90;;;;;;5021369;28;20397;-81
2021/09/25 04:22:30;;;;;;;8.97;8.07;;;12.30;99.90;;;;;;5021203;28;20401;-79
2021/09/25 04:24:56;;;;;;;10.83;7.73;;;12.20;99.90;;;;;;5021229;28;20455;-80
2021/09/25 04:27:22;;;;;;;8.50;7.70;;;12.10;99.90;;;;;;5020945;28;20173;-79
2021/09/25 04:29:47;;;;;;;9.30;8.37;;;12.10;99.90;;;;;;5021153;28;20166;-80
2021/09/25 04:32:14;;;;;;;11.93;7.93;;;12.10;99.90;;;;;;5020893;28;20204;-81
2021/09/25 04:34:39;;;;;;;9.90;8.80;;;12.00;99.90;;;;;;5020842;28;20161;-81
2021/09/25 04:37:05;;;;;;;9.17;8.30;;;12.10;99.90;;;;;;5020690;28;20399;-81
2021/09/25 04:39:31;;;;;;;8.30;7.50;;;12.10;99.90;;;;;;5021087;28;20172;-81
2021/09/25 04:41:57;;;;;;;10.47;8.70;;;12.20;99.90;;;;;;5021136;28;20404;-81
2021/09/25 04:44:23;;;;;;;8.40;7.60;;;12.10;99.90;;;;;;5020752;28;20196;-80
2021/09/25 04:46:49;;;;;;;9.43;8.50;;;12.10;99.90;;;;;;5020868;28;20401;-79
2021/09/25 04:49:16;;;;;;;8.93;8.03;;;12.20;99.90;;;;;;5019885;28;20189;-81
2021/09/25 04:51:42;;;;;;;11.63;7.70;;;12.20;99.90;;;;;;5021463;28;20200;-80
2021/09/25 04:54:08;;;;;;;11.40;7.97;;;12.20;99.90;;;;;;5019673;28;20401;-81
2021/09/25 04:56:34;;;;;;;9.37;7.67;;;12.20;99.90;;;;;;5020962;28;20407;-80
2021/09/25 04:59:00;;;;;;;10.60;8.67;;;12.10;99.90;;;;;;5021088;28;21076;-81
2021/09/25 05:01:27;;;;;;;8.90;7.83;;;12.10;99.90;;;;;;5020651;28;20485;-81
2021/09/25 05:03:53;;;;;;;14.67;8.73;;;12.00;99.90;;;;;;5021523;28;20559;-81
2021/09/25 05:06:19;;;;;;;10.70;9.60;;;12.20;99.90;;;;;;5020099;28;20508;-81
2021/09/25 05:08:44;;;;;;;10.93;9.83;;;12.40;99.90;;;;;;5021388;28;20452;-80
2021/09/25 05:11:10;;;;;;;12.10;9.97;;;12.40;99.90;;;;;;5020685;28;20166;-81
2021/09/25 05:13:36;;;;;;;9.20;8.40;;;12.40;99.90;;;;;;5003279;28;20197;-80
2021/09/25 05:16:02;;;;;;;10.17;9.20;;;12.40;99.90;;;;;;5020961;28;20427;-81
2021/09/25 05:18:28;;;;;;;9.33;8.43;;;12.50;99.90;;;;;;5020499;28;20166;-80
2021/09/25 05:20:54;;;;;;;10.37;8.60;;;12.50;99.90;;;;;;5021010;28;20598;-81
2021/09/25 05:23:20;;;;;;;11.53;7.83;;;12.50;99.90;;;;;;5020945;28;20165;-81
2021/09/25 05:25:46;;;;;;;9.97;8.07;;;12.40;99.90;;;;;;5019525;28;20166;-81
2021/09/25 05:28:13;;;;;;;11.50;9.90;;;12.30;99.90;;;;;;5020632;28;20483;-81
2021/09/25 05:30:39;;;;;;;9.57;7.87;;;12.10;99.90;;;;;;5020567;28;20416;-80
2021/09/25 05:33:07;;;;;;;9.30;7.63;;;12.00;99.90;;;;;;5020690;28;20443;-80
2021/09/25 05:35:34;;;;;;;9.03;8.23;;;12.00;99.90;;;;;;5020673;28;20454;-81
2021/09/25 05:38:01;;;;;;;10.90;7.97;;;12.00;99.90;;;;;;5019499;28;20854;-81
2021/09/25 05:40:27;;;;;;;9.70;7.90;;;12.10;99.90;;;;;;5020923;28;20704;-80
2021/09/25 05:42:53;;;;;;;8.77;7.83;;;12.00;99.90;;;;;;5020946;28;20454;-80
2021/09/25 05:45:19;;;;;;;10.37;9.27;;;12.00;99.90;;;;;;5022319;28;20396;-81
2021/09/25 05:47:48;;;;;;;11.00;8.93;;;12.10;99.90;;;;;;5022047;28;20165;-81
2021/09/25 05:50:16;;;;;;;10.80;8.90;;;12.20;99.90;;;;;;5019561;28;20761;-81
2021/09/25 05:52:41;;;;;;;8.43;7.60;;;12.20;99.90;;;;;;5019696;28;20491;-79
2021/09/25 05:55:10;;;;;;;14.10;8.90;;;12.00;99.90;;;;;;5019829;28;20745;-82
2021/09/25 05:57:36;;;;;;;9.17;8.23;;;12.20;99.90;;;;;;5019946;28;20556;-78
2021/09/25 06:00:04;;;;;;;10.10;8.13;;;12.00;99.90;;;;;;5019254;28;20592;-79
2021/09/25 06:02:31;;;;;;;8.67;7.77;;;12.00;99.90;;;;;;5019660;28;20405;-81
2021/09/25 06:04:57;;;;;;;9.13;7.93;;;12.20;99.90;;;;;;5019352;28;20396;-81
2021/09/25 06:07:22;;;;;;;15.23;9.00;;;12.30;99.90;;;;;;5018999;28;20491;-80
2021/09/25 06:09:48;;;;;;;11.70;8.70;;;12.40;99.90;;;;;;5019143;28;20200;-80
2021/09/25 06:12:14;;;;;;;8.57;7.83;;;12.40;99.90;;;;;;5019130;28;20197;-80
2021/09/25 06:14:40;;;;;;;8.93;8.13;;;12.40;99.90;;;;;;5019522;28;20165;-79
2021/09/25 06:17:06;;;;;;;13.33;9.20;;;12.60;99.90;;;;;;5019658;28;20589;-80
2021/09/25 06:19:33;;;;;;;9.50;8.60;;;12.80;99.90;;;;;;5019476;28;20174;-81
2021/09/25 06:22:08;;;;;;;12.43;8.73;;;12.70;99.90;;;;;;5017476;28;20420;-80
2021/09/25 06:24:34;;;;;;;10.47;8.23;;;12.80;99.90;;;;;;5019779;28;20404;-81
2021/09/25 06:26:59;;;;;;;8.63;7.63;;;12.80;99.90;;;;;;5019764;28;20407;-80
2021/09/25 06:29:25;;;;;;;12.07;9.73;;;12.90;99.90;;;;;;5019776;28;20161;-81
2021/09/25 06:31:51;;;;;;;10.20;8.90;;;13.00;99.90;;;;;;5020346;28;20275;-81
2021/09/25 06:34:17;;;;;;;10.40;8.77;;;13.10;99.90;;;;;;5020300;28;20636;-81
2021/09/25 06:36:43;;;;;;;9.20;8.27;;;13.10;99.90;;;;;;5018985;28;20487;-81
2021/09/25 06:39:09;;;;;;;10.83;8.90;;;13.10;99.90;;;;;;5019248;28;20400;-81
2021/09/25 06:41:35;;;;;;;9.10;8.27;;;13.10;99.90;;;;;;5018685;28;20172;-80
2021/09/25 06:44:01;;;;;;;10.80;9.67;;;13.20;99.90;;;;;;5020241;28;20728;-81
2021/09/25 06:46:27;;;;;;;10.20;9.20;;;13.30;99.90;;;;;;5019945;28;20409;-80
2021/09/25 06:48:53;;;;;;;15.13;7.63;;;13.30;99.90;;;;;;5019862;28;20166;-80
2021/09/25 06:51:20;;;;;;;9.50;8.57;;;13.50;99.90;;;;;;5019593;28;20200;-80
2021/09/25 06:53:46;;;;;;;13.60;8.00;;;13.50;99.90;;;;;;5020154;28;20162;-81
2021/09/25 06:56:12;;;;;;;12.97;8.47;;;13.50;99.90;;;;;;5019049;28;20397;-81
2021/09/25 06:58:38;;;;;;;10.33;8.43;;;13.60;99.90;;;;;;5018369;28;20662;-81
2021/09/25 07:01:03;;;;;;;13.47;8.20;;;13.50;99.90;;;;;;5018754;28;20197;-81
2021/09/25 07:03:29;;;;;;;9.50;8.50;;;13.30;99.90;;;;;;5019434;28;20161;-80
2021/09/25 07:05:55;;;;;;;9.27;8.37;;;13.50;99.90;;;;;;5019881;28;20158;-80
2021/09/25 07:08:22;;;;;;;8.33;7.63;;;13.70;99.90;;;;;;5018738;28;20192;-81
2021/09/25 07:10:50;;;;;;;8.67;7.77;;;13.80;99.90;;;;;;5024151;28;20172;-79
2021/09/25 07:13:17;;;;;;;11.63;8.70;;;13.80;99.90;;;;;;5027806;28;20444;-80
2021/09/25 07:15:43;;;;;;;8.83;8.00;;;14.00;99.90;;;;;;5005562;28;20396;-81
2021/09/25 07:18:09;;;;;;;7.73;7.00;;;14.00;99.90;;;;;;5019336;28;20404;-81
2021/09/25 07:20:36;;;;;;;12.00;9.17;;;14.10;99.90;;;;;;5019422;28;20851;-82
2021/09/25 07:23:02;;;;;;;12.00;7.77;;;14.20;99.90;;;;;;5019165;28;20483;-82
2021/09/25 07:25:28;;;;;;;8.47;7.60;;;14.20;99.90;;;;;;5019250;28;20928;-81
2021/09/25 07:27:55;;;;;;;22.20;9.63;;;14.30;99.90;;;;;;5019406;28;20407;-81
2021/09/25 07:30:22;;;;;;;9.33;8.53;;;14.40;99.90;;;;;;5019441;28;20480;-80
2021/09/25 07:32:48;;;;;;;10.47;8.37;;;14.60;99.90;;;;;;5017847;28;20506;-81
2021/09/25 07:35:15;;;;;;;14.33;8.37;;;14.60;99.90;;;;;;5019431;28;20389;-81
2021/09/25 07:37:42;;;;;;;13.83;9.03;;;14.50;99.90;;;;;;5001589;28;20397;-81
2021/09/25 07:40:10;;;;;;;9.30;8.40;;;14.50;99.90;;;;;;5018138;28;20447;-81
2021/09/25 07:42:36;;;;;;;9.30;7.10;;;14.70;99.90;;;;;;5019175;28;20434;-81
2021/09/25 07:45:03;;;;;;;9.93;7.60;;;14.70;99.90;;;;;;5019305;28;20396;-81
2021/09/25 07:47:29;;;;;;;11.90;8.07;;;14.80;99.90;;;;;;5019006;28;20400;-80
2021/09/25 07:49:55;;;;;;;10.30;9.20;;;15.00;99.90;;;;;;5002110;28;20401;-81
2021/09/25 07:52:21;;;;;;;15.10;8.53;;;14.80;99.90;;;;;;5018918;28;20277;-81
2021/09/25 07:54:47;;;;;;;7.93;7.13;;;15.00;99.90;;;;;;5019155;28;20201;-81
2021/09/25 07:57:13;;;;;;;8.03;7.27;;;15.20;99.90;;;;;;5018110;28;20830;-81
2021/09/25 07:59:39;;;;;;;9.40;7.70;;;15.50;99.90;;;;;;5017780;28;20403;-81
2021/09/25 08:02:05;;;;;;;10.40;9.03;;;15.30;99.90;;;;;;5000770;28;20542;-81
2021/09/25 08:04:33;;;;;;;9.30;8.27;;;15.50;99.90;;;;;;5001628;28;20956;-81
2021/09/25 08:06:59;;;;;;;12.53;8.63;;;15.50;99.90;;;;;;5018068;28;20415;-81
2021/09/25 08:09:24;;;;;;;12.97;8.83;;;15.50;99.90;;;;;;5003181;28;20466;-81
2021/09/25 08:11:51;;;;;;;10.50;9.40;;;15.80;99.90;;;;;;5021842;28;20201;-82
2021/09/25 08:14:17;;;;;;;12.60;9.30;;;15.90;99.90;;;;;;5019448;28;20181;-82
2021/09/25 08:16:43;;;;;;;10.27;8.33;;;16.00;99.90;;;;;;5017940;28;20464;-82
2021/09/25 08:19:08;;;;;;;18.60;10.03;;;16.30;99.90;;;;;;5017108;28;20782;-81
2021/09/25 08:21:34;;;;;;;6.90;6.30;;;16.10;99.90;;;;;;5001154;28;20248;-82
2021/09/25 08:24:00;;;;;;;13.00;8.20;;;16.20;99.90;;;;;;5003885;28;20173;-82
2021/09/25 08:26:26;;;;;;;9.30;8.40;;;16.10;99.90;;;;;;5004096;28;20309;-80
2021/09/25 08:28:52;;;;;;;10.07;7.60;;;16.50;99.90;;;;;;5021676;28;20454;-80
2021/09/25 08:31:18;;;;;;;10.57;7.40;;;16.50;99.90;;;;;;5020638;28;20173;-83
2021/09/25 08:33:44;;;;;;;8.13;6.67;;;16.50;99.90;;;;;;5004757;28;20195;-81
2021/09/25 08:36:10;;;;;;;8.10;7.30;;;16.60;99.90;;;;;;4987997;28;20162;-81
2021/09/25 08:38:36;;;;;;;11.17;7.20;;;17.10;99.90;;;;;;5020869;28;20737;-80
2021/09/25 08:41:02;;;;;;;6.40;5.80;;;17.20;99.90;;;;;;5021685;28;20393;-80
2021/09/25 08:43:28;;;;;;;8.07;7.40;;;17.40;99.90;;;;;;5022394;28;20404;-81
2021/09/25 08:46:01;;;;;;;8.73;7.83;;;17.40;99.90;;;;;;5022106;28;20404;-79
2021/09/25 08:48:27;;;;;;;8.43;7.17;;;17.50;99.90;;;;;;5021529;28;20172;-80
2021/09/25 08:50:54;;;;;;;8.53;7.10;;;17.30;99.90;;;;;;5021575;28;20401;-81
2021/09/25 08:53:27;;;;;;;8.10;7.30;;;17.80;99.90;;;;;;5021838;28;20447;-80
2021/09/25 08:55:53;;;;;;;8.43;7.17;;;18.30;99.90;;;;;;4981775;28;20402;-81
2021/09/25 08:58:19;;;;;;;7.87;7.17;;;18.10;99.90;;;;;;4965476;28;20469;-82
2021/09/25 09:00:48;;;;;;;10.55;9.55;;;18.10;99.90;;;;;;4981300;28;20418;-79
2021/09/25 09:03:34;;;;;;;8.60;7.80;;;18.60;99.90;;;;;;4964539;28;20581;-80
2021/09/25 09:06:07;;;;;;;8.53;6.97;;;19.00;99.90;;;;;;4979515;28;20406;-79
2021/09/25 09:08:33;;;;;;;10.27;9.23;;;19.00;99.90;;;;;;4979344;28;20438;-82
2021/09/25 09:11:00;;;;;;;11.13;7.67;;;18.70;99.90;;;;;;4980261;28;20406;-80
2021/09/25 09:13:26;;;;;;;11.33;7.57;;;19.10;99.90;;;;;;4979864;28;20390;-82
2021/09/25 09:15:53;;;;;;;9.63;8.40;;;19.90;99.90;;;;;;4963105;28;20482;-81
2021/09/25 09:18:21;;;;;;;8.33;6.90;;;20.20;99.90;;;;;;4978868;28;20871;-80
2021/09/25 09:21:04;;;;;;;12.53;6.77;;;20.60;99.90;;;;;;4978990;28;20496;-82
2021/09/25 09:23:32;;;;;;;9.93;6.30;;;21.10;99.90;;;;;;4978439;28;20458;-81
2021/09/25 09:25:58;;;;;;;8.97;7.70;;;21.40;99.90;;;;;;4968585;28;20417;-81
2021/09/25 09:28:29;;;;;;;9.43;6.90;;;21.20;99.90;;;;;;5019389;28;20395;-79
2021/09/25 09:30:58;;;;;;;8.17;7.30;;;21.60;99.90;;;;;;5019872;28;20451;-81
2021/09/25 09:33:38;;;;;;;8.43;7.73;;;21.50;99.90;;;;;;5018961;28;20941;-80
2021/09/25 09:36:26;;;;;;;9.00;7.07;;;22.40;99.90;;;;;;5020731;28;20399;-81
2021/09/25 09:39:17;;;;;;;7.30;6.53;;;22.00;99.90;;;;;;5020254;28;20393;-81
2021/09/25 09:41:46;;;;;;;9.23;6.37;;;22.70;99.90;;;;;;5021069;28;20416;-81
2021/09/25 09:44:17;;;;;;;8.20;7.13;;;22.00;99.90;;;;;;5021271;28;20872;-81
2021/09/25 09:46:47;;;;;;;8.33;6.83;;;21.30;99.90;;;;;;5020503;28;20403;-82
2021/09/25 09:49:17;;;;;;;6.70;6.03;;;21.00;99.90;;;;;;5020686;28;20483;-81
2021/09/25 09:51:47;;;;;;;11.93;7.47;;;21.40;99.90;;;;;;5020800;28;20444;-82
2021/09/25 09:54:19;;;;;;;8.00;6.97;;;20.70;99.90;;;;;;5021367;28;20415;-80
2021/09/25 09:56:45;;;;;;;8.73;7.93;;;22.10;99.90;;;;;;5021916;28;20393;-82
2021/09/25 09:59:14;;;;;;;8.17;7.00;;;22.30;99.90;;;;;;5022935;28;20399;-80
2021/09/25 10:01:41;;;;;;;14.90;8.60;;;21.00;99.90;;;;;;5020395;28;20480;-81
2021/09/25 10:04:07;;;;;;;9.65;7.40;;;21.40;99.90;;;;;;5019804;28;20487;-81
2021/09/25 10:06:36;;;;;;;11.67;8.73;;;21.80;99.90;;;;;;5002747;28;20177;-82
2021/09/25 10:09:11;;;;;;;9.00;6.60;;;22.40;99.90;;;;;;5018878;28;20424;-81
2021/09/25 10:11:39;;;;;;;10.60;7.77;;;23.30;99.90;;;;;;5001874;28;20479;-81
2021/09/25 10:14:07;;;;;;;9.00;7.33;;;23.90;99.90;;;;;;5018816;28;21017;-79
2021/09/25 10:16:34;;;;;;;7.77;7.03;;;23.50;99.90;;;;;;5019051;28;20405;-81
2021/09/25 10:19:03;;;;;;;7.93;7.10;;;24.10;99.90;;;;;;5019422;28;20393;-82
2021/09/25 10:21:35;;;;;;;7.43;6.70;;;24.60;99.90;;;;;;5020451;28;20839;-82
2021/09/25 10:24:07;;;;;;;8.90;7.50;;;22.80;99.90;;;;;;5003298;28;20900;-81
2021/09/25 10:26:34;;;;;;;9.17;7.70;;;23.60;99.90;;;;;;5007082;28;20412;-80
2021/09/25 10:29:05;;;;;;;8.13;6.90;;;24.50;99.90;;;;;;5032059;28;20389;-79
2021/09/25 10:31:31;;;;;;;11.87;6.97;;;25.50;99.90;;;;;;5032629;28;20471;-81
2021/09/25 10:34:12;;;;;;;11.90;7.03;;;25.90;99.90;;;;;;5029689;28;20424;-78
2021/09/25 10:36:43;;;;;;;8.37;6.83;;;25.90;99.90;;;;;;5031015;28;20380;-82
2021/09/25 10:39:29;;;;;;;9.53;7.00;;;24.90;99.90;;;;;;5020930;28;20484;-80
2021/09/25 10:42:09;;;;;;;13.73;7.17;;;23.30;99.90;;;;;;5021538;28;20484;-79
2021/09/25 10:44:42;;;;;;;13.07;9.10;;;23.70;99.90;;;;;;5018743;28;20399;-80
2021/09/25 10:47:12;;;;;;;9.33;6.23;;;23.40;99.90;;;;;;5020189;28;20834;-80
2021/09/25 10:49:45;;;;;;;8.93;6.00;;;24.90;99.90;;;;;;5002330;28;20500;-81
2021/09/25 10:52:12;;;;;;;7.20;6.60;;;25.50;99.90;;;;;;5019049;28;20897;-80
2021/09/25 10:54:38;;;;;;;7.53;6.07;;;26.10;99.90;;;;;;5017697;28;20435;-81
2021/09/25 10:57:19;;;;;;;9.23;7.53;;;26.30;99.90;;;;;;5015986;28;20458;-82
2021/09/25 11:00:20;;;;;;;9.07;6.80;;;27.00;99.90;;;;;;5018882;28;20586;-82
2021/09/25 11:02:46;;;;;;;7.80;6.97;;;28.00;99.90;;;;;;5019095;28;20733;-81
2021/09/25 11:05:18;;;;;;;6.60;6.10;;;28.30;99.90;;;;;;5018012;28;20399;-79
2021/09/25 11:07:58;;;;;;;7.07;6.37;;;29.00;99.90;;;;;;5022462;28;20411;-80
2021/09/25 11:10:36;;;;;;;7.63;6.87;;;29.00;99.90;;;;;;5020023;28;20494;-80
2021/09/25 11:13:02;;;;;;;7.20;6.43;;;28.10;99.90;;;;;;5021275;28;20439;-79
2021/09/25 11:15:32;;;;;;;6.80;6.20;;;28.20;99.90;;;;;;5005902;28;20431;-78
2021/09/25 11:18:31;;;;;;;7.40;6.70;;;27.70;99.90;;;;;;5021959;28;20274;-80
2021/09/25 11:21:04;;;;;;;6.93;6.40;;;28.70;99.90;;;;;;5019448;28;20439;-80
2021/09/25 11:23:46;;;;;;;8.40;5.97;;;29.10;98.70;;;;;;5019769;28;20764;-82
2021/09/25 11:26:14;;;;;;;8.73;7.90;;;28.80;98.50;;;;;;5018063;28;20266;-80
2021/09/25 11:28:43;;;;;;;11.23;7.97;;;27.00;99.90;;;;;;5020598;28;20176;-82
2021/09/25 11:31:10;;;;;;;7.80;6.97;;;27.60;99.90;;;;;;5019411;28;20192;-81
2021/09/25 11:33:38;;;;;;;6.03;5.53;;;26.50;99.90;;;;;;5018979;28;20259;-80
2021/09/25 11:36:09;;;;;;;7.33;6.63;;;25.30;99.90;;;;;;5018534;28;20171;-81
2021/09/25 11:38:44;;;;;;;7.13;6.53;;;27.00;99.90;;;;;;5018769;28;20400;-81
2021/09/25 11:41:15;;;;;;;6.80;6.13;;;27.20;99.90;;;;;;5002922;28;21007;-82
2021/09/25 11:44:00;;;;;;;6.47;5.97;;;28.40;98.00;;;;;;5018107;28;20388;-82
2021/09/25 11:46:26;;;;;;;9.48;6.38;;;28.20;97.30;;;;;;5019773;28;20239;-82
2021/09/25 11:49:01;;;;;;;6.38;5.78;;;26.80;98.60;;;;;;5017590;28;20163;-81
2021/09/25 11:51:27;;;;;;;6.90;6.30;;;28.20;97.40;;;;;;5017790;28;20227;-81
2021/09/25 11:53:54;;;;;;;5.95;5.45;;;29.00;95.50;;;;;;5019753;28;20173;-82
2021/09/25 11:56:29;;;;;;;6.70;5.72;;;30.30;92.80;;;;;;5019875;28;20161;-82
2021/09/25 11:58:59;;;;;;;6.72;6.10;;;29.40;92.70;;;;;;5002836;28;20558;-81
2021/09/25 12:01:25;;;;;;;5.97;5.47;;;29.60;93.90;;;;;;5020120;28;20621;-80
2021/09/25 12:03:51;;;;;;;8.52;6.78;;;29.50;91.90;;;;;;5022854;28;20169;-81
2021/09/25 12:06:17;;;;;;;7.70;7.00;;;28.80;92.70;;;;;;5024038;28;20168;-79
2021/09/25 12:08:49;;;;;;;7.25;6.65;;;28.30;93.40;;;;;;5023369;28;20197;-81
2021/09/25 12:11:15;;;;;;;7.15;6.53;;;27.60;94.40;;;;;;5022116;28;20184;-83
2021/09/25 12:13:44;;;;;;;6.68;6.18;;;27.20;95.40;;;;;;5023983;28;20165;-81
2021/09/25 12:16:15;;;;;;;10.13;6.70;;;27.50;94.20;;;;;;5022167;28;20231;-82
2021/09/25 12:18:43;;;;;;;6.60;6.00;;;27.00;95.20;;;;;;5024091;28;20169;-81
2021/09/25 12:21:13;;;;;;;6.95;6.45;;;27.10;94.40;;;;;;5022870;28;20533;-82
2021/09/25 12:23:45;;;;;;;7.45;6.75;;;26.70;95.60;;;;;;5023606;28;20233;-81
2021/09/25 12:26:16;;;;;;;6.43;5.85;;;27.30;95.60;;;;;;5006013;28;20174;-82
2021/09/25 12:28:46;;;;;;;6.00;5.53;;;27.60;95.00;;;;;;5022493;28;20161;-81
2021/09/25 12:31:35;;;;;;;6.53;5.63;;;27.30;95.50;;;;;;4988023;28;20241;-80
2021/09/25 12:34:06;;;;;;;7.72;7.00;;;26.80;95.70;;;;;;5021831;28;20548;-81
2021/09/25 12:36:35;;;;;;;6.88;6.22;;;26.90;95.80;;;;;;5021815;28;20192;-82
2021/09/25 12:39:13;;;;;;;8.80;5.72;;;28.00;93.50;;;;;;5022069;28;20219;-82
2021/09/25 12:41:47;;;;;;;7.35;6.43;;;27.60;93.40;;;;;;5006694;28;20264;-83
2021/09/25 12:44:19;;;;;;;6.65;6.15;;;26.70;93.80;;;;;;5021033;28;20169;-81
2021/09/25 12:46:51;;;;;;;7.22;5.72;;;25.80;94.90;;;;;;5022846;28;20180;-82